^^
Station Historical Data
 
Daily Summary for February 25, 2018 Units:  English    Metric   Both
« Previous Day
Next Day »
Daily Weekly Monthly Yearly Custom
  Current: High: Low: Average:
Temperature: 48.5 °F TemperatureF °F 48.1 °F 51.9 °F
Dew Point: 38.4 °F DewpointF °F 35.2 °F 46 °F
Humidity: 68 % Humidity % 59 % 80 %
Wind Speed: 2.3 mph WindSpeedMPH mph 0.0 mph 4.8 mph
Wind Gust: 2.3 mph WindSpeedGustMPH mph - -
Wind:WSW - - SSW
Pressure: 30.00 in PressureIn in 29.57 in -
Precipitation: 0.25 in      
Historical Graphs
 
 
Tabular Data for February 25, 2018
Time Temperature Dew Point Pressure Wind Wind Speed Wind Gust Humidity Rainfall Rate (Hourly) solar Conditions
TemperatureF °F DewpointF °F PressureIn in Calm     Humidity % HourlyPrecipIn in SolarRadiationWatts/m^2 W/m2 Conditions
00:03 48.8 °F 48.0 °F 29.77 in Calm     97 % 0.02 in 0.0 W/m2 RA
00:08 48.9 °F 48.1 °F 29.77 in Calm     97 % 0.02 in 0.0 W/m2 RA
00:13 49.0 °F 48.2 °F 29.76 in Calm     97 % 0.02 in 0.0 W/m2 OVC
00:18 49.2 °F 48.4 °F 29.76 in South 1.2 mph 1.2 mph 97 % 0.01 in 0.0 W/m2 OVC
00:23 49.3 °F 48.5 °F 29.76 in SSE 2.3 mph 2.3 mph 97 % 0.01 in 0.0 W/m2 OVC
00:28 49.4 °F 48.6 °F 29.76 in SSE 2.3 mph 2.3 mph 97 % 0.01 in 0.0 W/m2 OVC
00:33 49.6 °F 48.8 °F 29.75 in SSE 1.2 mph   97 % 0.01 in 0.0 W/m2 OVC
00:38 49.7 °F 48.9 °F 29.74 in SSE 2.3 mph 2.3 mph 97 % 0.01 in 0.0 W/m2 OVC
00:43 49.7 °F 48.9 °F 29.74 in SSE 2.3 mph 2.3 mph 97 % 0.02 in 0.0 W/m2 RA
00:48 49.8 °F 49.0 °F 29.73 in Calm     97 % 0.02 in 0.0 W/m2 RA
00:53 49.9 °F 49.1 °F 29.72 in SSE 1.0 mph 1.0 mph 97 % 0.02 in 0.0 W/m2 OVC
00:58 50.3 °F 49.5 °F 29.72 in SSE 2.3 mph 2.3 mph 97 % 0.02 in 0.0 W/m2 OVC
01:03 50.6 °F 50.1 °F 29.72 in SSE 2.3 mph 2.3 mph 98 % 0.01 in 0.0 W/m2 OVC
01:08 51.0 °F 50.5 °F 29.72 in SSE 2.3 mph 2.3 mph 98 % 0.01 in 0.0 W/m2 OVC
01:13 51.3 °F 50.8 °F 29.71 in SSE 2.3 mph 2.3 mph 98 % 0.01 in 0.0 W/m2 OVC
01:18 51.5 °F 51.0 °F 29.70 in SE 3.5 mph 3.5 mph 98 % 0.01 in 0.0 W/m2 OVC
01:23 51.7 °F 51.2 °F 29.69 in SE 2.3 mph 2.3 mph 98 % 0.01 in 0.0 W/m2 OVC
01:28 51.9 °F 51.4 °F 29.68 in SE 3.5 mph 3.5 mph 98 % 0.01 in 0.0 W/m2 OVC
01:33 52.2 °F 51.7 °F 29.68 in SE 2.3 mph 2.3 mph 98 % 0.02 in 0.0 W/m2 RA
01:38 52.4 °F 51.9 °F 29.68 in South 2.3 mph 2.3 mph 98 % 0.02 in 0.0 W/m2 RA
01:43 52.7 °F 52.2 °F 29.69 in South 3.5 mph 3.5 mph 98 % 0.01 in 0.0 W/m2 OVC
01:48 53.3 °F 52.8 °F 29.69 in SSE 3.5 mph 3.5 mph 98 % 0.01 in 0.0 W/m2 OVC
01:53 53.9 °F 53.3 °F 29.69 in South 3.5 mph 3.5 mph 98 % 0.01 in 0.0 W/m2 OVC
01:58 54.4 °F 53.8 °F 29.69 in SSW 2.3 mph 2.5 mph 98 % 0.01 in 0.0 W/m2 OVC
02:03 54.8 °F 54.2 °F 29.70 in South 5.0 mph 5.0 mph 98 % 0.01 in 0.0 W/m2 OVC
02:09 55.1 °F 54.5 °F 29.69 in West 3.5 mph 3.5 mph 98 % 0.02 in 0.0 W/m2 RA
02:14 55.1 °F 54.5 °F 29.67 in SE 5.0 mph 5.0 mph 98 % 0.02 in 0.0 W/m2 RA
02:19 55.2 °F 54.6 °F 29.67 in SE 3.5 mph 3.5 mph 98 % 0.02 in 0.0 W/m2 OVC
02:24 55.1 °F 54.5 °F 29.68 in ESE 3.5 mph 3.5 mph 98 % 0.02 in 0.0 W/m2 OVC
02:29 54.9 °F 54.3 °F 29.68 in ESE 2.3 mph 2.3 mph 98 % 0.02 in 0.0 W/m2 OVC
02:34 55.1 °F 54.3 °F 29.68 in East 3.5 mph 3.5 mph 97 % 0.01 in 0.0 W/m2 OVC
02:39 55.4 °F 54.8 °F 29.68 in ENE 3.0 mph 3.0 mph 98 % 0.01 in 0.0 W/m2 OVC
02:44 55.9 °F 55.3 °F 29.67 in ESE 3.5 mph 3.5 mph 98 % 0.01 in 0.0 W/m2 OVC
02:49 56.3 °F 55.7 °F 29.66 in SE 3.5 mph 3.5 mph 98 % 0.02 in 0.0 W/m2 RA
02:54 56.5 °F 55.9 °F 29.67 in SE 3.5 mph 3.5 mph 98 % 0.02 in 0.0 W/m2 RA
02:59 56.6 °F 55.8 °F 29.67 in East 3.5 mph 3.5 mph 97 % 0.02 in 0.0 W/m2 OVC
03:04 56.9 °F 56.1 °F 29.67 in SE 3.5 mph 3.5 mph 97 % 0.02 in 0.0 W/m2 OVC
03:09 57.0 °F 55.9 °F 29.66 in South 4.6 mph 4.6 mph 96 % 0.01 in 0.0 W/m2 OVC
03:14 57.1 °F 56.0 °F 29.66 in SE 4.6 mph 4.6 mph 96 % 0.01 in 0.0 W/m2 OVC
03:19 57.3 °F 55.9 °F 29.67 in South 8.1 mph 8.1 mph 95 % 0.01 in 0.0 W/m2 OVC
03:24 57.4 °F 55.7 °F 29.65 in SE 6.9 mph 6.9 mph 94 % 0.02 in 0.0 W/m2 RA
03:29 57.5 °F 55.5 °F 29.64 in South 6.9 mph 6.9 mph 93 % 0.02 in 0.0 W/m2 RA
03:34 57.7 °F 55.7 °F 29.61 in SE 6.9 mph 6.9 mph 93 % 0.02 in 0.0 W/m2 OVC
03:39 57.7 °F 55.4 °F 29.61 in SSE 10.0 mph 10.0 mph 92 % 0.02 in 0.0 W/m2 OVC
03:44 57.8 °F 55.2 °F 29.62 in SE 6.9 mph 6.9 mph 91 % 0.02 in 0.0 W/m2 OVC
03:49 58.0 °F 55.4 °F 29.62 in SSE 4.6 mph 4.6 mph 91 % 0.01 in 0.0 W/m2 OVC
03:54 58.1 °F 55.2 °F 29.61 in SSE 11.5 mph 11.5 mph 90 % 0.02 in 0.0 W/m2 RA
03:59 58.3 °F 55.1 °F 29.57 in SE 6.9 mph 6.9 mph 89 % 0.02 in 0.0 W/m2 RA
04:04 58.2 °F 55.0 °F 29.62 in SE 8.1 mph 8.1 mph 89 % 0.02 in 0.0 W/m2 OVC
04:09 58.2 °F 55.0 °F 29.65 in SE 10.4 mph 10.4 mph 89 % 0.02 in 0.0 W/m2 OVC
04:14 58.3 °F 55.1 °F 29.66 in ESE 11.5 mph 11.5 mph 89 % 0.02 in 0.0 W/m2 OVC
04:19 58.5 °F 55.3 °F 29.65 in SE 5.0 mph 5.0 mph 89 % 0.02 in 0.0 W/m2 OVC
04:24 58.2 °F 54.7 °F 29.63 in SSE 5.8 mph 5.8 mph 88 % 0.01 in 0.0 W/m2 OVC
04:29 58.0 °F 54.5 °F 29.63 in SSE 3.5 mph 3.5 mph 88 % 0.02 in 0.0 W/m2 RA
04:34 57.8 °F 54.6 °F 29.65 in ENE 3.5 mph 3.5 mph 89 % 0.02 in 0.0 W/m2 RA
04:39 57.7 °F 54.2 °F 29.67 in South 3.5 mph 3.5 mph 88 % 0.02 in 0.0 W/m2 OVC
04:44 57.8 °F 54.3 °F 29.67 in ESE 3.5 mph 3.5 mph 88 % 0.02 in 0.0 W/m2 OVC
04:49 58.1 °F 54.2 °F 29.67 in ESE 3.5 mph 3.5 mph 87 % 0.02 in 0.0 W/m2 OVC
04:54 58.1 °F 54.2 °F 29.67 in ESE 4.6 mph 4.6 mph 87 % 0.01 in 0.0 W/m2 OVC
04:59 58.4 °F 54.2 °F 29.68 in ENE 5.8 mph 5.8 mph 86 % 0.01 in 0.0 W/m2 OVC
05:04 58.6 °F 54.4 °F 29.68 in NW 5.8 mph 5.8 mph 86 % 0.02 in 0.0 W/m2 RA
05:09 58.8 °F 54.3 °F 29.68 in SSE 3.5 mph 3.5 mph 85 % 0.02 in 0.0 W/m2 RA
05:14 58.8 °F 54.3 °F 29.68 in ESE 4.6 mph 4.6 mph 85 % 0.02 in 0.0 W/m2 OVC
05:19 58.7 °F 54.2 °F 29.67 in SE 4.0 mph 4.0 mph 85 % 0.02 in 0.0 W/m2 OVC
05:24 58.7 °F 54.2 °F 29.68 in SSE 5.8 mph 5.8 mph 85 % 0.02 in 0.0 W/m2 OVC
05:29 58.6 °F 54.4 °F 29.68 in ENE 5.8 mph 5.8 mph 86 % 0.01 in 0.0 W/m2 OVC
05:34 58.5 °F 54.3 °F 29.67 in NE 11.5 mph 11.5 mph 86 % 0.01 in 0.0 W/m2 OVC
05:39 58.4 °F 54.5 °F 29.70 in NW 3.5 mph 3.5 mph 87 % 0.02 in 0.0 W/m2 RA
05:44 58.5 °F 54.6 °F 29.69 in ENE 9.2 mph 9.2 mph 87 % 0.02 in 0.0 W/m2 RA
05:49 58.4 °F 54.5 °F 29.69 in SE 4.6 mph 4.6 mph 87 % 0.02 in 0.0 W/m2 OVC
05:55 58.4 °F 54.5 °F 29.70 in ENE 4.6 mph 4.6 mph 87 % 0.02 in 0.0 W/m2 OVC
06:00 58.3 °F 54.8 °F 29.70 in ENE 3.0 mph 3.0 mph 88 % 0.02 in 0.0 W/m2 OVC
06:05 58.3 °F 54.8 °F 29.69 in ESE 3.5 mph 3.5 mph 88 % 0.01 in 0.0 W/m2
06:10 58.3 °F 54.4 °F 29.69 in SSW 8.1 mph 8.1 mph 87 % 0.01 in 0.0 W/m2 OVC
06:15 58.4 °F 54.5 °F 29.71 in West 4.6 mph 4.6 mph 87 % 0.02 in 0.0 W/m2 RA
06:20 58.5 °F 54.6 °F 29.71 in East 3.5 mph 3.5 mph 87 % 0.02 in 0.0 W/m2 RA
06:25 58.6 °F 54.7 °F 29.72 in WNW 6.9 mph 6.9 mph 87 % 0.02 in 0.0 W/m2
06:30 58.7 °F 54.8 °F 29.72 in East 12.7 mph 12.7 mph 87 % 0.02 in 0.0 W/m2 OVC
06:35 58.7 °F 54.5 °F 29.72 in WSW 3.5 mph 3.5 mph 86 % 0.02 in 0.0 W/m2 OVC
06:40 58.5 °F 54.6 °F 29.72 in West 3.5 mph 3.5 mph 87 % 0.01 in 0.0 W/m2 OVC
06:45 58.3 °F 54.4 °F 29.73 in WNW 4.0 mph 4.0 mph 87 % 0.01 in 0.0 W/m2
06:50 58.1 °F 54.2 °F 29.73 in SE 2.3 mph 2.3 mph 87 % 0.02 in 0.0 W/m2 RA
06:55 58.0 °F 54.2 °F 29.74 in WNW 4.0 mph 4.0 mph 87 % 0.02 in 0.0 W/m2 RA
07:00 58.1 °F 54.2 °F 29.74 in ESE 4.6 mph 4.6 mph 87 % 0.02 in 0.0 W/m2 OVC
07:05 58.2 °F 54.0 °F 29.74 in WNW 3.5 mph 3.5 mph 86 % 0.02 in 0.0 W/m2 OVC
07:10 58.2 °F 53.4 °F 29.75 in SW 12.7 mph 12.7 mph 84 % 0.02 in 0.0 W/m2 OVC
07:15 57.4 °F 51.6 °F 29.77 in WSW 10.4 mph 10.4 mph 81 % 0.02 in 0.0 W/m2 RA
07:20 56.2 °F 50.1 °F 29.77 in NNW 11.5 mph 11.5 mph 80 % 0.02 in 0.0 W/m2 RA
07:25 55.3 °F 49.2 °F 29.78 in WNW 9.2 mph 9.2 mph 80 % 0.02 in 0.0 W/m2 OVC
07:30 54.6 °F 48.9 °F 29.78 in West 5.0 mph 5.0 mph 81 % 0.02 in 5.0 W/m2 BKN
07:35 54.2 °F 48.8 °F 29.79 in NW 6.9 mph 6.9 mph 82 % 0.02 in 5.0 W/m2 OVC
07:40 53.9 °F 48.2 °F 29.80 in WSW 11.5 mph 11.5 mph 81 % 0.02 in 5.0 W/m2 OVC
07:45 53.7 °F 47.7 °F 29.79 in WNW 8.0 mph 8.0 mph 80 % 0.02 in 7.0 W/m2 BKN
07:50 53.3 °F 46.6 °F 29.80 in WNW 8.1 mph 8.1 mph 78 % 0.02 in 23.0 W/m2 RA
07:55 52.9 °F 46.2 °F 29.81 in West 6.9 mph 6.9 mph 78 % 0.02 in 16.0 W/m2 RA
08:00 52.4 °F 45.4 °F 29.82 in West 5.8 mph 5.8 mph 77 % 0.02 in 30.0 W/m2 BKN
08:05 51.9 °F 43.5 °F 29.83 in WNW 8.1 mph 8.1 mph 73 % 0.02 in 37.0 W/m2 BKN
08:10 51.3 °F 42.9 °F 29.83 in NW 4.6 mph 4.6 mph 73 % 0.02 in 33.0 W/m2 BKN
08:15 50.9 °F 42.9 °F 29.84 in WNW 6.9 mph 6.9 mph 74 % 0.01 in 53.0 W/m2 BKN
08:20 50.7 °F 43.4 °F 29.84 in WNW 5.8 mph 5.8 mph 76 % 0.01 in 46.0 W/m2 BKN
08:25 50.5 °F 43.6 °F 29.85 in WNW 8.1 mph 8.1 mph 77 % 0.02 in 46.0 W/m2 RA
08:30 50.3 °F 44.0 °F 29.85 in WNW 3.5 mph 3.5 mph 79 % 0.02 in 49.0 W/m2 RA
08:35 50.2 °F 44.3 °F 29.85 in West 6.0 mph 6.0 mph 80 % 0.02 in 72.0 W/m2 BKN
08:40 49.9 °F 43.6 °F 29.86 in West 4.6 mph 4.6 mph 79 % 0.02 in 54.0 W/m2 BKN
08:45 49.7 °F 43.8 °F 29.86 in WNW 4.0 mph 4.0 mph 80 % 0.02 in 69.0 W/m2 BKN
08:50 49.5 °F 43.6 °F 29.86 in WNW 6.0 mph 6.0 mph 80 % 0.01 in 70.0 W/m2 BKN
08:53 49.4 °F 43.2 °F 29.86 in West 9.2 mph 9.2 mph 79 % 0.01 in 76.0 W/m2 BKN
08:58 49.4 °F 43.2 °F 29.87 in WSW 3.5 mph 3.5 mph 79 % 0.01 in 86.0 W/m2 BKN
09:03 49.2 °F 43.3 °F 29.87 in WNW 5.8 mph 5.8 mph 80 % 0.01 in 70.0 W/m2 BKN
09:08 49.1 °F 43.5 °F 29.89 in WNW 3.5 mph 3.5 mph 81 % 0.02 in 67.0 W/m2 RA
09:13 48.9 °F 43.3 °F 29.89 in NW 4.6 mph 4.6 mph 81 % 0.02 in 69.0 W/m2 RA
09:18 48.7 °F 42.8 °F 29.89 in WNW 4.6 mph 4.6 mph 80 % 0.02 in 74.0 W/m2 BKN
09:23 48.6 °F 42.7 °F 29.90 in West 4.6 mph 4.6 mph 80 % 0.02 in 70.0 W/m2 BKN
09:28 48.6 °F 42.7 °F 29.90 in WNW 3.0 mph 3.0 mph 80 % 0.01 in 77.0 W/m2 BKN
09:33 48.5 °F 42.9 °F 29.90 in West 3.5 mph 3.5 mph 81 % 0.01 in 76.0 W/m2 BKN
09:38 48.5 °F 42.6 °F 29.90 in NW 3.5 mph 3.5 mph 80 % 0.01 in 88.0 W/m2 BKN
09:43 48.4 °F 42.5 °F 29.91 in West 4.6 mph 4.6 mph 80 % 0.02 in 113.0 W/m2 RA
09:48 48.5 °F 42.6 °F 29.91 in WSW 1.2 mph 1.2 mph 80 % 0.02 in 120.0 W/m2 RA
09:53 48.4 °F 42.2 °F 29.92 in West 5.8 mph 5.8 mph 79 % 0.02 in 132.0 W/m2 BKN
09:58 48.4 °F 41.9 °F 29.92 in NNW 3.5 mph 3.5 mph 78 % 0.02 in 123.0 W/m2 BKN
10:03 48.3 °F 40.7 °F 29.92 in SW 3.5 mph 3.5 mph 75 % 0.02 in 134.0 W/m2 BKN
10:08 48.2 °F 40.3 °F 29.91 in SW 5.8 mph 5.8 mph 74 % 0.01 in 165.0 W/m2 BKN
10:13 48.1 °F 39.5 °F 29.91 in WSW 3.5 mph 3.5 mph 72 % 0.01 in 186.0 W/m2 BKN
10:18 48.3 °F 40.7 °F 29.91 in NW 2.3 mph 2.3 mph 75 % 0.01 in 176.0 W/m2 BKN
10:19 48.3 °F 40.0 °F 29.91 in WNW 4.0 mph 4.0 mph 73 % 0.01 in 179.0 W/m2 BKN
10:24 48.5 °F 40.9 °F 29.91 in NW 2.3 mph 2.3 mph 75 % 0.01 in 181.0 W/m2 BKN
10:29 48.5 °F 41.6 °F 29.92 in WSW 3.5 mph 3.5 mph 77 % 0.02 in 162.0 W/m2 RA
10:34 48.7 °F 42.1 °F 29.92 in SW 3.5 mph 3.5 mph 78 % 0.02 in 139.0 W/m2 RA
10:39 48.8 °F 42.2 °F 29.93 in West 1.2 mph 1.2 mph 78 % 0.02 in 178.0 W/m2 BKN
10:44 48.8 °F 41.9 °F 29.94 in South 4.6 mph 4.6 mph 77 % 0.01 in 260.0 W/m2 BKN
10:49 48.8 °F 40.9 °F 29.94 in WNW 7.0 mph 7.0 mph 74 % 0.01 in 149.0 W/m2 BKN
10:54 48.7 °F 40.4 °F 29.94 in WNW 3.5 mph 3.5 mph 73 % 0.01 in 144.0 W/m2 BKN
10:59 48.6 °F 40.0 °F 29.94 in WNW 3.5 mph 3.5 mph 72 % 0.01 in 156.0 W/m2 BKN
11:04 48.6 °F 41.0 °F 29.94 in WSW 3.5 mph 3.5 mph 75 % 0.01 in 183.0 W/m2 BKN
11:09 48.6 °F 41.4 °F 29.94 in WSW 2.3 mph 2.3 mph 76 % 0.01 in 225.0 W/m2 BKN
11:14 48.8 °F 42.2 °F 29.94 in SSW 3.5 mph 3.5 mph 78 % 0.02 in 234.0 W/m2 RA
11:19 48.8 °F 41.2 °F 29.94 in WSW 5.8 mph 5.8 mph 75 % 0.02 in 255.0 W/m2 RA
11:25 48.8 °F 40.9 °F 29.94 in NW 3.5 mph 3.5 mph 74 % 0.02 in 313.0 W/m2 BKN
11:29 48.9 °F 40.6 °F 29.94 in SW 4.6 mph 4.6 mph 73 % 0.01 in 288.0 W/m2 BKN
11:35 48.9 °F 40.3 °F 29.95 in West 4.6 mph 4.6 mph 72 % 0.01 in 325.0 W/m2 BKN
11:40 48.7 °F 40.1 °F 29.95 in SW 4.6 mph 4.6 mph 72 % 0.01 in 258.0 W/m2 BKN
11:45 48.8 °F 40.9 °F 29.95 in ESE 3.5 mph 3.5 mph 74 % 0.01 in 241.0 W/m2 BKN
11:50 48.9 °F 41.3 °F 29.95 in SSE 3.5 mph 3.5 mph 75 % 0.01 in 302.0 W/m2 BKN
11:55 49.1 °F 41.9 °F 29.95 in West 3.5 mph 3.5 mph 76 % 0.01 in 251.0 W/m2 BKN
12:00 49.2 °F 41.6 °F 29.95 in WSW 6.0 mph 6.0 mph 75 % 0.01 in 264.0 W/m2 BKN
12:05 48.9 °F 40.6 °F 29.95 in NNW 4.6 mph 4.6 mph 73 % 0.02 in 264.0 W/m2 RA
12:10 48.8 °F 40.5 °F 29.95 in WNW 5.8 mph 5.8 mph 73 % 0.02 in 241.0 W/m2 RA
12:15 48.8 °F 40.5 °F 29.95 in NE 6.9 mph 6.9 mph 73 % 0.01 in 287.0 W/m2 BKN
12:20 48.7 °F 39.7 °F 29.97 in WSW 4.6 mph 4.6 mph 71 % 0.01 in 329.0 W/m2 BKN
12:25 48.8 °F 40.5 °F 29.96 in North 3.5 mph 3.5 mph 73 % 0.01 in 422.0 W/m2 SCT
12:30 49.1 °F 40.1 °F 29.97 in SW 3.5 mph 3.5 mph 71 % 0.01 in 464.0 W/m2 SCT
12:35 49.1 °F 39.4 °F 29.97 in WSW 6.9 mph 6.9 mph 69 % 0.01 in 401.0 W/m2 FEW
12:40 49.1 °F 38.6 °F 29.97 in NW 6.9 mph 6.9 mph 67 % 0.01 in 227.0 W/m2 SCT
12:45 48.8 °F 37.9 °F 29.97 in NNW 3.5 mph 3.5 mph 66 % 0.02 in 176.0 W/m2 RA
12:50 48.6 °F 38.1 °F 29.97 in WNW 5.8 mph 5.8 mph 67 % 0.02 in 253.0 W/m2 RA
12:55 48.6 °F 38.1 °F 29.96 in WNW 5.0 mph 5.0 mph 67 % 0.02 in 236.0 W/m2 BKN
13:00 48.6 °F 37.7 °F 29.97 in WSW 4.6 mph 4.6 mph 66 % 0.02 in 220.0 W/m2 BKN
13:05 48.6 °F 38.5 °F 29.96 in WSW 4.6 mph 4.6 mph 68 % 0.01 in 241.0 W/m2 BKN
13:10 48.6 °F 39.3 °F 29.96 in SSW 4.6 mph 4.6 mph 70 % 0.01 in 262.0 W/m2 BKN
13:15 48.8 °F 39.8 °F 29.96 in NW 3.5 mph 3.5 mph 71 % 0.01 in 239.0 W/m2 BKN
13:20 49.0 °F 40.4 °F 29.96 in SSE 5.8 mph 5.8 mph 72 % 0.01 in 232.0 W/m2 BKN
13:25 49.1 °F 40.1 °F 29.96 in South 5.0 mph 5.0 mph 71 % 0.01 in 237.0 W/m2 BKN
13:30 49.0 °F 39.3 °F 29.95 in NW 3.5 mph 3.5 mph 69 % 0.01 in 204.0 W/m2 BKN
13:35 48.9 °F 39.5 °F 29.95 in SSW 5.0 mph 5.0 mph 70 % 0.02 in 250.0 W/m2 RA
13:40 49.1 °F 39.7 °F 29.96 in SW 4.6 mph 4.6 mph 70 % 0.02 in 204.0 W/m2 RA
13:45 49.3 °F 39.6 °F 29.96 in SSE 2.3 mph 2.3 mph 69 % 0.01 in 171.0 W/m2 BKN
13:50 49.5 °F 40.1 °F 29.96 in WNW 4.6 mph 4.6 mph 70 % 0.01 in 265.0 W/m2 BKN
13:55 49.6 °F 39.8 °F 29.96 in WSW 3.5 mph 3.5 mph 69 % 0.01 in 195.0 W/m2 BKN
14:00 49.4 °F 38.9 °F 29.96 in West 6.9 mph 6.9 mph 67 % 0.01 in 301.0 W/m2 BKN
14:05 49.4 °F 39.7 °F 29.96 in SSE 8.1 mph 8.1 mph 69 % 0.01 in 214.0 W/m2 BKN
14:10 49.6 °F 39.8 °F 29.96 in NW 5.8 mph 5.8 mph 69 % 0.01 in 258.0 W/m2 SCT
14:15 49.6 °F 39.8 °F 29.96 in WSW 9.2 mph 9.2 mph 69 % 0.01 in 225.0 W/m2 SCT
14:20 49.4 °F 40.0 °F 29.96 in SW 5.8 mph 5.8 mph 70 % 0.01 in 253.0 W/m2 BKN
14:25 49.3 °F 39.9 °F 29.96 in SW 5.8 mph 5.8 mph 70 % 0.02 in 200.0 W/m2 RA
14:30 49.3 °F 39.2 °F 29.96 in SSW 6.9 mph 6.9 mph 68 % 0.02 in 179.0 W/m2 RA
14:35 49.1 °F 38.6 °F 29.96 in WNW 4.6 mph 4.6 mph 67 % 0.01 in 220.0 W/m2 BKN
14:40 49.2 °F 40.2 °F 29.97 in WSW 4.0 mph 4.0 mph 71 % 0.01 in 185.0 W/m2 BKN
14:45 49.2 °F 39.1 °F 29.96 in SSE 3.5 mph 3.5 mph 68 % 0.01 in 188.0 W/m2 BKN
14:50 49.1 °F 36.6 °F 29.97 in SSW 9.2 mph 9.2 mph 62 % 0.01 in 174.0 W/m2 BKN
14:55 48.9 °F 36.4 °F 29.96 in WNW 6.9 mph 6.9 mph 62 % 0.01 in 171.0 W/m2 BKN
15:00 49.0 °F 35.7 °F 29.97 in ESE 8.1 mph 8.1 mph 60 % 0.01 in 155.0 W/m2 BKN
15:05 49.1 °F 35.8 °F 29.97 in WNW 6.9 mph 6.9 mph 60 % 0.01 in 171.0 W/m2 SCT
15:10 48.9 °F 35.2 °F 29.97 in WNW 8.1 mph 8.1 mph 59 % 0.01 in 167.0 W/m2 SCT
15:15 49.0 °F 36.9 °F 29.97 in SSE 4.6 mph 4.6 mph 63 % 0.02 in 526.0 W/m2 RA
15:20 49.6 °F 37.1 °F 29.97 in WSW 3.5 mph 3.5 mph 62 % 0.02 in 65.0 W/m2 RA
15:25 49.2 °F 37.5 °F 29.98 in SSE 3.5 mph 3.5 mph 64 % 0.01 in 163.0 W/m2 SCT
15:30 49.1 °F 37.8 °F 29.97 in SW 3.5 mph 3.5 mph 65 % 0.01 in 183.0 W/m2 SCT
15:35 49.1 °F 37.8 °F 29.98 in WSW 6.0 mph 6.0 mph 65 % 0.01 in 146.0 W/m2 SCT
15:40 49.1 °F 38.6 °F 29.98 in NW 4.6 mph 4.6 mph 67 % 0.01 in 132.0 W/m2 SCT
15:45 49.0 °F 38.5 °F 29.97 in West 2.3 mph 2.3 mph 67 % 0.01 in 243.0 W/m2 SCT
15:51 49.3 °F 38.4 °F 29.97 in WNW 3.5 mph 3.5 mph 66 % 0.01 in 104.0 W/m2 SCT
15:56 49.3 °F 38.8 °F 29.97 in NNW 4.6 mph 4.6 mph 67 % 0.01 in 111.0 W/m2 SCT
16:01 49.3 °F 39.2 °F 29.98 in WSW 3.5 mph 3.5 mph 68 % 0.01 in 128.0 W/m2 SCT
16:06 49.2 °F 37.9 °F 29.97 in NNE 4.6 mph 4.6 mph 65 % 0.01 in 105.0 W/m2 SCT
16:11 49.1 °F 37.8 °F 29.98 in West 6.9 mph 6.9 mph 65 % 0.02 in 111.0 W/m2 RA
16:16 49.0 °F 38.1 °F 29.97 in SW 3.5 mph 3.5 mph 66 % 0.01 in 88.0 W/m2 RA
16:21 48.9 °F 38.8 °F 29.98 in SE 3.5 mph 3.5 mph 68 % 0.01 in 156.0 W/m2 SCT
16:26 49.1 °F 39.4 °F 29.99 in West 2.0 mph 2.0 mph 69 % 0.01 in 102.0 W/m2 FEW
16:31 49.1 °F 39.0 °F 29.99 in WNW 5.8 mph 5.8 mph 68 % 0.01 in 100.0 W/m2 CLR
16:36 49.0 °F 38.5 °F 29.99 in South 6.0 mph 6.0 mph 67 % 0.01 in 79.0 W/m2 FEW
16:41 48.8 °F 38.3 °F 30.00 in WNW 3.5 mph 3.5 mph 67 % 0.01 in 88.0 W/m2 FEW
16:46 48.7 °F 38.6 °F 30.00 in SSW 3.5 mph 3.5 mph 68 % 0.01 in 90.0 W/m2 CLR
16:51 48.6 °F 38.5 °F 30.00 in WNW 2.3 mph 2.3 mph 68 % 0.01 in 74.0 W/m2 CLR
16:56 48.5 °F 38.4 °F 30.00 in WSW 2.3 mph 2.3 mph 68 % 0.01 in 79.0 W/m2 CLR
Licking County Weather
Compliments of Weather Underground - 2.5 mb